Time;durP1;ratioP1;P1;durP2;ratioP2;P2;SDS_P1;SDS_P2;PMS_P1;PMS_P2;Temp;Humidity;BMP_temperature;BMP_pressure;BME280_temperature;BME280_humidity;BME280_pressure;Samples;Min_cycle;Max_cycle;Signal;HPM_P1;HPM_P2
2019/11/28 07:07:37;;;;;;;106.1;56.3;;;;;;;23.37;39.24316;968.4683;;;;
2019/11/28 07:10:02;;;;;;;98.3;56.1;;;;;;;23.48;39.17773;968.472;;;;
2019/11/28 07:12:27;;;;;;;104.7;69.9;;;;;;;23.53;38.92773;968.5013;;;;
2019/11/28 07:15:18;;;;;;;92.5;54.5;;;;;;;23.52;38.85254;968.5876;;;;
2019/11/28 07:17:50;;;;;;;94.9;58.5;;;;;;;23.58;38.69824;968.5887;;;;
2019/11/28 07:20:08;;;;;;;98.9;59.6;;;;;;;23.63;38.50098;968.545;;;;
2019/11/28 07:22:29;;;;;;;95.1;56.2;;;;;;;23.64;38.54395;968.5323;;;;
2019/11/28 07:24:54;;;;;;;98.6;64.5;;;;;;;23.67;38.44043;968.5754;;;;
2019/11/28 07:27:19;;;;;;;95.7;55.4;;;;;;;23.65;38.31152;968.5161;;;;
2019/11/28 07:29:47;;;;;;;94.6;53.8;;;;;;;23.61;38.33008;968.4684;;;;
2019/11/28 07:32:12;;;;;;;98.9;55.2;;;;;;;23.65;38.29004;968.5296;;;;
2019/11/28 07:34:37;;;;;;;98.7;55.3;;;;;;;23.65;38.36426;968.5587;;;;
2019/11/28 07:37:02;;;;;;;98.1;55.4;;;;;;;23.64;38.40625;968.5372;;;;
2019/11/28 07:39:27;;;;;;;99.2;55.2;;;;;;;23.66;38.36523;968.5153;;;;
2019/11/28 07:41:52;;;;;;;97.9;56.5;;;;;;;23.66;38.32324;968.6387;;;;
2019/11/28 07:44:28;;;;;;;98.7;55.5;;;;;;;23.64;38.25781;968.692;;;;
2019/11/28 07:46:43;;;;;;;99.4;55.7;;;;;;;23.63;38.29785;968.6627;;;;
2019/11/28 07:51:14;;;;;;;99.3;55.3;;;;;;;23.69;38.26172;968.6156;;;;
2019/11/28 07:53:40;;;;;;;98.6;56.3;;;;;;;23.67;38.16406;968.5442;;;;
2019/11/28 07:56:05;;;;;;;99.1;55.5;;;;;;;23.72;38.22168;968.5584;;;;
2019/11/28 07:58:30;;;;;;;99;55.4;;;;;;;23.66;38.32324;968.6528;;;;
2019/11/28 08:00:55;;;;;;;100.8;56;;;;;;;23.69;38.25098;968.628;;;;
2019/11/28 08:03:20;;;;;;;101;55.4;;;;;;;23.69;38.28223;968.5915;;;;
2019/11/28 08:05:45;;;;;;;100.8;55.6;;;;;;;23.69;38.25098;968.5753;;;;
2019/11/28 08:08:10;;;;;;;101.1;55.7;;;;;;;23.66;38.3125;968.6303;;;;
2019/11/28 08:10:35;;;;;;;100.8;55.6;;;;;;;23.72;38.22168;968.6211;;;;
2019/11/28 08:13:00;;;;;;;101.6;56.4;;;;;;;23.69;38.26172;968.6678;;;;
2019/11/28 08:15:25;;;;;;;102.1;55.5;;;;;;;23.7;38.20898;968.6237;;;;
2019/11/28 08:17:50;;;;;;;102.4;56.4;;;;;;;23.7;38.18848;968.7229;;;;
2019/11/28 08:21:14;;;;;;;102.4;56.3;;;;;;;23.66;38.26953;968.6852;;;;
2019/11/28 08:23:40;;;;;;;102.3;55.6;;;;;;;23.68;38.19727;968.6918;;;;
2019/11/28 08:26:05;;;;;;;102.2;56.8;;;;;;;23.69;38.19824;968.6273;;;;
2019/11/28 08:28:30;;;;;;;101.8;55.9;;;;;;;23.68;38.21875;968.6902;;;;
2019/11/28 08:30:55;;;;;;;103.8;56.3;;;;;;;23.71;38.14648;968.7236;;;;
2019/11/28 08:33:20;;;;;;;105.2;56.4;;;;;;;23.68;38.16504;968.7053;;;;
2019/11/28 08:35:45;;;;;;;106.2;56;;;;;;;23.7;38.18848;968.7117;;;;
2019/11/28 08:38:10;;;;;;;105.2;56.9;;;;;;;23.73;38.10547;968.7435;;;;
2019/11/28 08:41:19;;;;;;;105.9;56.6;;;;;;;23.72;38.11523;968.6537;;;;
2019/11/28 08:43:39;;;;;;;106;56;;;;;;;23.69;38.13477;968.6572;;;;
2019/11/28 08:46:10;;;;;;;106.8;56.2;;;;;;;23.69;38.08105;968.6594;;;;
2019/11/28 08:48:30;;;;;;;109;56.9;;;;;;;23.74;38.10645;968.7111;;;;
2019/11/28 08:50:55;;;;;;;107.4;55.4;;;;;;;23.73;38.12695;968.762;;;;
2019/11/28 08:53:21;;;;;;;107.8;56.8;;;;;;;23.77;38.01367;968.8577;;;;
2019/11/28 08:55:47;;;;;;;107.3;56.2;;;;;;;23.71;37.93457;968.8514;;;;
2019/11/28 08:58:12;;;;;;;107.7;55.9;;;;;;;23.74;38.0957;968.8704;;;;
2019/11/28 09:00:37;;;;;;;108.3;56.4;;;;;;;23.71;38.12598;968.8336;;;;
2019/11/28 09:03:02;;;;;;;108.8;56.6;;;;;;;23.71;38.11426;968.9511;;;;
2019/11/28 09:05:27;;;;;;;109.1;56.6;;;;;;;23.71;38.11523;968.9462;;;;
2019/11/28 09:07:52;;;;;;;111.1;56.8;;;;;;;23.72;38.11523;969.0231;;;;
2019/11/28 09:11:15;;;;;;;111.4;57.2;;;;;;;23.74;37.93652;969.0491;;;;
2019/11/28 09:13:40;;;;;;;112.2;57;;;;;;;23.72;38.09473;969.097;;;;
2019/11/28 09:16:05;;;;;;;112.8;57.5;;;;;;;23.74;38.08496;969.1131;;;;
2019/11/28 09:18:30;;;;;;;113.8;57.1;;;;;;;23.7;38.14551;969.2173;;;;
2019/11/28 09:21:14;;;;;;;114;58.1;;;;;;;23.73;38.08496;969.1214;;;;
2019/11/28 09:23:54;;;;;;;115.9;57.5;;;;;;;23.76;38.05566;969.1512;;;;
2019/11/28 09:26:12;;;;;;;115;58.1;;;;;;;23.76;38.0127;969.19;;;;
2019/11/28 09:28:30;;;;;;;113.3;56.8;;;;;;;23.74;38.0752;969.2023;;;;
2019/11/28 09:31:14;;;;;;;114.6;56.9;;;;;;;23.72;38.11523;969.2478;;;;
2019/11/28 09:33:39;;;;;;;114.3;57;;;;;;;23.71;38.11523;969.2826;;;;
2019/11/28 09:36:05;;;;;;;115.3;57.5;;;;;;;23.73;38.07422;969.3058;;;;
2019/11/28 09:38:33;;;;;;;116.3;56.7;;;;;;;23.72;38.10449;969.2598;;;;
2019/11/28 09:40:59;;;;;;;117.1;63.5;;;;;;;23.74;37.99023;969.3251;;;;
2019/11/28 09:43:25;;;;;;;119.4;67;;;;;;;23.75;37.89453;969.3505;;;;
2019/11/28 09:45:55;;;;;;;116.3;60.1;;;;;;;23.72;37.97754;969.2417;;;;
2019/11/28 09:48:23;;;;;;;117.6;63.2;;;;;;;23.68;37.99512;969.3572;;;;
2019/11/28 09:50:49;;;;;;;126.3;76.6;;;;;;;23.73;37.97852;969.3047;;;;
2019/11/28 09:55:46;;;;;;;129.1;79.4;;;;;;;23.73;37.93555;969.3248;;;;
2019/11/28 09:58:16;;;;;;;123;65.2;;;;;;;23.71;38.08301;969.3083;;;;
2019/11/28 10:03:34;;;;;;;134.7;91.2;;;;;;;23.69;38.08105;969.1622;;;;
